Time;durP1;ratioP1;P1;durP2;ratioP2;P2;SDS_P1;SDS_P2;PMS_P1;PMS_P2;Temp;Humidity;BMP_temperature;BMP_pressure;BME280_temperature;BME280_humidity;BME280_pressure;Samples;Min_cycle;Max_cycle;Signal;HPM_P1;HPM_P2
2021/04/21 00:00:15;;;;;;;2.03;1.92;;;;;;;18.43;29.73;95912.59;5026340;28;20049;-62
2021/04/21 00:02:42;;;;;;;2.30;2.20;;;;;;;18.43;29.95;95923.44;5026412;28;20064;-62
2021/04/21 00:05:08;;;;;;;1.83;1.73;;;;;;;18.42;30.10;95927.22;5026179;28;20738;-62
2021/04/21 00:07:34;;;;;;;2.47;2.28;;;;;;;18.41;29.84;95929.13;5025254;28;20496;-62
2021/04/21 00:10:00;;;;;;;3.15;2.95;;;;;;;18.40;29.64;95915.84;5009445;28;20070;-63
2021/04/21 00:12:26;;;;;;;2.13;2.03;;;;;;;18.39;29.96;95919.66;5009060;28;20041;-63
2021/04/21 00:14:52;;;;;;;2.60;2.40;;;;;;;18.38;29.74;95926.16;5026352;28;20120;-62
2021/04/21 00:17:19;;;;;;;2.15;2.05;;;;;;;18.39;29.74;95922.38;5009731;28;20076;-62
2021/04/21 00:19:45;;;;;;;2.03;1.92;;;;;;;18.36;29.69;95926.47;5025885;28;20041;-62
2021/04/21 00:22:10;;;;;;;1.52;1.52;;;;;;;18.35;30.07;95924.81;5008917;28;20083;-62
2021/04/21 00:24:38;;;;;;;1.95;1.85;;;;;;;18.34;29.80;95920.50;5009037;28;20073;-64
2021/04/21 00:27:04;;;;;;;2.40;2.20;;;;;;;18.34;29.92;95928.63;5025681;28;20065;-63
2021/04/21 00:29:29;;;;;;;2.13;1.95;;;;;;;18.32;29.70;95919.97;5008796;28;20128;-62
2021/04/21 00:31:56;;;;;;;2.08;1.98;;;;;;;18.32;29.92;95917.25;5008549;28;20067;-63
2021/04/21 00:34:21;;;;;;;2.15;2.05;;;;;;;18.32;30.04;95921.84;5011812;28;20083;-61
2021/04/21 00:36:49;;;;;;;2.03;1.92;;;;;;;18.31;30.11;95921.06;5026941;28;20053;-62
2021/04/21 00:39:15;;;;;;;2.47;2.28;;;;;;;18.29;29.94;95914.28;5025917;28;20037;-63
2021/04/21 00:41:45;;;;;;;1.67;1.60;;;;;;;18.30;29.69;95919.44;5009208;28;20092;-62
2021/04/21 00:44:40;;;;;;;1.90;1.80;;;;;;;18.28;29.67;95915.38;5025225;28;20042;-62
2021/04/21 00:47:08;;;;;;;1.90;1.80;;;;;;;18.28;29.77;95912.66;5025581;28;20552;-63
2021/04/21 00:50:04;;;;;;;2.38;2.00;;;;;;;18.26;29.95;95915.66;4992054;28;20064;-62
2021/04/21 00:52:49;;;;;;;2.95;2.20;;;;;;;18.26;29.94;95914.84;5026852;28;20057;-62
2021/04/21 00:55:21;;;;;;;1.80;1.70;;;;;;;18.22;29.90;95912.69;5045041;28;20114;-62
2021/04/21 00:58:25;;;;;;;2.08;1.90;;;;;;;18.22;29.83;95920.03;5028870;28;20132;-62
2021/04/21 01:00:50;;;;;;;1.95;1.85;;;;;;;18.21;29.91;95916.50;5039089;28;20052;-60
2021/04/21 01:03:27;;;;;;;2.15;1.95;;;;;;;18.19;30.29;95912.44;5044792;28;20049;-63
2021/04/21 01:05:55;;;;;;;2.05;1.83;;;;;;;18.18;29.87;95908.94;5045509;28;20048;-63
2021/04/21 01:08:31;;;;;;;1.92;1.83;;;;;;;18.18;29.96;95910.84;5046020;28;20582;-62
2021/04/21 01:11:11;;;;;;;1.98;1.80;;;;;;;18.18;30.35;95913.53;5044481;28;20805;-63
2021/04/21 01:13:47;;;;;;;2.50;2.30;;;;;;;18.16;30.35;95913.81;5044300;28;20048;-62
2021/04/21 01:16:13;;;;;;;1.63;1.52;;;;;;;18.16;30.13;95910.31;5044559;28;20443;-62
2021/04/21 01:18:39;;;;;;;2.38;2.17;;;;;;;18.16;29.94;95900.25;5041168;28;20045;-62
2021/04/21 01:21:33;;;;;;;3.13;1.98;;;;;;;18.16;30.15;95902.19;5044659;28;20108;-62
2021/04/21 01:24:14;;;;;;;2.13;1.92;;;;;;;18.16;30.44;95907.59;5042520;28;20110;-62
2021/04/21 01:26:49;;;;;;;2.30;2.10;;;;;;;18.15;30.16;95901.34;5044329;28;20048;-63
2021/04/21 01:29:16;;;;;;;;;;;;;;;18.14;30.06;95901.63;5045036;28;20463;-62
2021/04/21 01:31:41;;;;;;;1.70;1.60;;;;;;;18.13;30.03;95900.81;5043715;28;19917;-62
2021/04/21 01:34:07;;;;;;;2.00;1.85;;;;;;;18.12;30.19;95899.19;5044428;28;20102;-62
2021/04/21 01:36:33;;;;;;;2.08;1.98;;;;;;;18.13;30.06;95900.81;5047649;28;20492;-62
2021/04/21 01:38:59;;;;;;;2.53;1.73;;;;;;;18.13;30.06;95898.09;5043861;28;20099;-63
2021/04/21 01:41:26;;;;;;;2.92;2.22;;;;;;;18.14;30.31;95899.72;5044487;28;20053;-62
2021/04/21 01:44:02;;;;;;;1.80;1.63;;;;;;;18.12;29.98;95899.19;5043862;28;20049;-63
2021/04/21 01:46:30;;;;;;;2.15;1.95;;;;;;;18.13;30.00;95895.38;5043965;28;20099;-62
2021/04/21 01:49:09;;;;;;;1.85;1.75;;;;;;;18.13;30.04;95897.28;5044190;28;20041;-62
2021/04/21 01:51:37;;;;;;;1.75;1.65;;;;;;;18.12;30.30;95893.78;5044003;28;20084;-62
2021/04/21 01:54:12;;;;;;;1.80;1.70;;;;;;;18.12;30.16;95896.50;5029863;28;20049;-62
2021/04/21 01:56:40;;;;;;;2.03;1.90;;;;;;;18.13;30.44;95903.53;5007941;28;20052;-62
2021/04/21 01:59:26;;;;;;;1.95;1.80;;;;;;;18.12;30.32;95896.50;5025691;28;20049;-62
2021/04/21 02:01:53;;;;;;;1.85;1.75;;;;;;;18.12;30.32;95903.81;5025167;28;20052;-62
2021/04/21 02:04:35;;;;;;;2.03;1.90;;;;;;;18.10;30.51;95906.00;5023562;28;20054;-62
2021/04/21 02:07:00;;;;;;;3.00;1.92;;;;;;;18.10;30.37;95906.81;5009325;28;20586;-63
2021/04/21 02:09:44;;;;;;;2.28;1.80;;;;;;;18.10;30.31;95908.72;5025064;28;20075;-63
2021/04/21 02:12:29;;;;;;;2.22;1.67;;;;;;;18.08;30.26;95906.28;4992765;28;20433;-62
2021/04/21 02:15:04;;;;;;;1.98;1.80;;;;;;;18.07;30.34;95906.53;5025382;28;20610;-61
2021/04/21 02:17:50;;;;;;;1.70;1.60;;;;;;;18.07;30.21;95909.25;5007817;28;20045;-63
2021/04/21 02:20:37;;;;;;;2.63;1.92;;;;;;;18.06;30.44;95913.88;5007408;28;20056;-62
2021/04/21 02:23:14;;;;;;;1.92;1.73;;;;;;;18.05;30.61;95914.97;5025617;28;20107;-63
2021/04/21 02:26:17;;;;;;;2.55;2.20;;;;;;;18.04;30.40;95905.22;5023611;28;20060;-62
2021/04/21 02:28:46;;;;;;;3.13;1.80;;;;;;;18.03;30.64;95909.03;5024434;28;20175;-62
2021/04/21 02:31:14;;;;;;;2.33;1.98;;;;;;;18.03;30.86;95911.72;5025045;28;20068;-62
2021/04/21 02:33:52;;;;;;;1.95;1.85;;;;;;;18.03;30.65;95919.84;5023045;28;20045;-63
2021/04/21 02:36:30;;;;;;;1.60;1.50;;;;;;;18.02;30.42;95915.50;5009672;28;20077;-62
2021/04/21 02:39:04;;;;;;;1.77;1.67;;;;;;;18.02;30.36;95915.50;5007278;28;20099;-62
2021/04/21 02:41:47;;;;;;;1.90;1.77;;;;;;;18.00;30.40;95918.50;5007837;28;20079;-62
2021/04/21 02:44:37;;;;;;;1.92;1.70;;;;;;;18.01;30.60;95913.91;5022965;28;20048;-62
2021/04/21 02:47:45;;;;;;;1.60;1.50;;;;;;;18.00;30.41;95921.19;5024784;28;20060;-61
2021/04/21 02:50:33;;;;;;;1.80;1.40;;;;;;;17.99;30.81;95916.09;4971475;28;20065;-62
2021/04/21 02:53:36;;;;;;;1.80;1.70;;;;;;;17.97;30.47;95915.56;4988324;28;20556;-62
2021/04/21 02:56:36;;;;;;;2.25;1.70;;;;;;;17.97;30.48;95910.94;5041254;28;20457;-62
2021/04/21 02:59:32;;;;;;;1.63;1.52;;;;;;;17.96;30.63;95917.44;5047268;28;20057;-61
2021/04/21 03:02:14;;;;;;;2.10;1.88;;;;;;;17.95;30.70;95915.81;5033634;28;20079;-62
2021/04/21 03:04:54;;;;;;;1.30;1.30;;;;;;;17.96;30.72;95916.63;5030492;28;20041;-63
2021/04/21 03:07:27;;;;;;;1.50;1.40;;;;;;;17.95;30.45;95915.03;5047402;28;20048;-62
2021/04/21 03:09:58;;;;;;;1.52;1.42;;;;;;;17.95;30.48;95909.59;5047826;28;20045;-62
2021/04/21 03:12:26;;;;;;;1.50;1.40;;;;;;;17.94;30.67;95916.91;5047671;28;20547;-63
2021/04/21 03:14:54;;;;;;;1.83;1.70;;;;;;;17.94;30.87;95916.91;5047378;28;20049;-62
2021/04/21 03:17:19;;;;;;;1.60;1.50;;;;;;;17.94;30.62;95906.06;5043538;28;20083;-62
2021/04/21 03:20:07;;;;;;;1.48;1.42;;;;;;;17.95;30.59;95904.19;5029578;28;20107;-62
2021/04/21 03:22:32;;;;;;;1.60;1.50;;;;;;;17.95;30.44;95904.19;5046296;28;20068;-62
2021/04/21 03:25:19;;;;;;;1.73;1.63;;;;;;;17.93;30.71;95911.78;5046140;28;20147;-62
2021/04/21 03:27:50;;;;;;;1.73;1.55;;;;;;;17.94;30.76;95907.97;5030632;28;20401;-61
2021/04/21 03:30:16;;;;;;;2.08;1.60;;;;;;;17.93;30.65;95895.50;5046642;28;20049;-61
2021/04/21 03:32:47;;;;;;;2.28;1.58;;;;;;;17.92;30.90;95904.72;5045412;28;20095;-62
2021/04/21 03:35:12;;;;;;;1.60;1.50;;;;;;;17.92;30.76;95904.72;5046354;28;20049;-62
2021/04/21 03:38:07;;;;;;;1.40;1.35;;;;;;;17.90;30.67;95906.91;5049548;28;20130;-62
2021/04/21 03:40:33;;;;;;;1.65;1.55;;;;;;;17.90;30.49;95893.34;5046268;28;20451;-62
2021/04/21 03:42:59;;;;;;;2.47;1.50;;;;;;;17.90;30.94;95901.47;5046401;28;20053;-62
2021/04/21 03:45:25;;;;;;;2.05;1.80;;;;;;;17.89;30.79;95899.88;5047509;28;20041;-61
2021/04/21 03:47:51;;;;;;;1.63;1.52;;;;;;;17.88;30.90;95899.03;5047441;28;20389;-62
2021/04/21 03:50:16;;;;;;;2.17;1.50;;;;;;;17.88;30.85;95898.22;5045677;28;20519;-62
2021/04/21 03:52:46;;;;;;;1.40;1.30;;;;;;;17.87;30.68;95896.63;5042614;28;20045;-62
2021/04/21 03:55:13;;;;;;;2.05;1.40;;;;;;;17.87;30.56;95892.00;5027254;28;20096;-63
2021/04/21 03:57:49;;;;;;;2.33;1.60;;;;;;;17.86;30.92;95893.09;5009835;28;20041;-62
2021/04/21 04:00:16;;;;;;;1.52;1.42;;;;;;;17.87;31.00;95891.22;5009456;28;20064;-63
2021/04/21 04:02:45;;;;;;;1.40;1.30;;;;;;;17.86;30.93;95892.28;5025359;28;20148;-62
2021/04/21 04:05:11;;;;;;;1.60;1.50;;;;;;;17.85;30.91;95894.19;5026377;28;20053;-62
2021/04/21 04:07:42;;;;;;;2.35;1.55;;;;;;;17.83;31.01;95894.47;5008684;28;20043;-63
2021/04/21 04:10:17;;;;;;;1.40;1.40;;;;;;;17.86;30.69;95895.00;5009004;28;20064;-63
2021/04/21 04:12:43;;;;;;;1.30;1.30;;;;;;;17.85;30.95;95894.19;5011009;28;20053;-63
2021/04/21 04:15:10;;;;;;;1.55;1.45;;;;;;;17.84;30.80;95892.59;5026417;28;20136;-63
2021/04/21 04:17:36;;;;;;;1.52;1.42;;;;;;;17.82;30.81;95903.69;5026172;28;20050;-62
2021/04/21 04:20:01;;;;;;;1.45;1.35;;;;;;;17.83;30.93;95901.78;5008496;28;20060;-61
2021/04/21 04:22:28;;;;;;;1.48;1.40;;;;;;;17.82;30.93;95897.44;5026284;28;20565;-61
2021/04/21 04:24:56;;;;;;;1.50;1.50;;;;;;;17.80;30.94;95903.13;5010213;28;20053;-63
2021/04/21 04:27:23;;;;;;;1.60;1.50;;;;;;;17.79;30.74;95906.91;5025936;28;20073;-61
2021/04/21 04:29:49;;;;;;;1.30;1.20;;;;;;;17.81;31.04;95901.22;5009217;28;20061;-62
2021/04/21 04:32:19;;;;;;;1.38;1.38;;;;;;;17.79;30.72;95903.38;5025231;28;20139;-62
2021/04/21 04:34:49;;;;;;;1.60;1.50;;;;;;;17.77;30.73;95898.25;5025280;28;20488;-60
2021/04/21 04:37:17;;;;;;;1.35;1.30;;;;;;;17.77;30.61;95900.16;5027019;28;20658;-62
2021/04/21 04:39:43;;;;;;;1.60;1.50;;;;;;;17.76;30.64;95904.75;5012890;28;20412;-62
2021/04/21 04:42:09;;;;;;;1.85;1.38;;;;;;;17.76;30.67;95904.75;5008523;28;20045;-62
2021/04/21 04:44:41;;;;;;;1.65;1.60;;;;;;;17.75;31.07;95911.25;5024721;28;20060;-62
2021/04/21 04:47:32;;;;;;;1.45;1.35;;;;;;;17.74;30.83;95915.06;5026781;28;20132;-61
2021/04/21 04:50:05;;;;;;;1.42;1.35;;;;;;;17.74;30.99;95916.97;5026206;28;20053;-61
2021/04/21 04:52:33;;;;;;;1.83;1.67;;;;;;;17.74;30.95;95912.34;5025870;28;20048;-61
2021/04/21 04:54:59;;;;;;;1.67;1.58;;;;;;;17.73;31.06;95926.97;5045231;28;20055;-61
2021/04/21 04:57:25;;;;;;;1.50;1.40;;;;;;;17.70;30.80;95919.41;5045404;28;20053;-58
2021/04/21 04:59:51;;;;;;;1.88;1.77;;;;;;;17.72;30.96;95928.06;5044885;28;20183;-62
2021/04/21 05:02:17;;;;;;;1.48;1.38;;;;;;;17.71;30.62;95937.28;5028290;28;20751;-62
2021/04/21 05:05:05;;;;;;;1.75;1.65;;;;;;;17.69;30.84;95928.59;5046224;28;20102;-61
2021/04/21 05:07:42;;;;;;;1.70;1.48;;;;;;;17.70;30.81;95937.56;5044051;28;20049;-61
2021/04/21 05:10:10;;;;;;;1.95;1.65;;;;;;;17.69;30.83;95939.44;5044316;28;20057;-61
2021/04/21 05:12:37;;;;;;;1.30;1.30;;;;;;;17.70;30.81;95942.97;5045286;28;20480;-61
2021/04/21 05:15:03;;;;;;;1.25;1.25;;;;;;;17.68;31.07;95940.53;5044243;28;20071;-61
2021/04/21 05:17:53;;;;;;;1.40;1.30;;;;;;;17.68;31.19;95945.16;5024451;28;20048;-61
2021/04/21 05:20:53;;;;;;;1.50;1.40;;;;;;;17.66;30.82;95947.31;5045189;28;20076;-61
2021/04/21 05:23:54;;;;;;;1.20;1.20;;;;;;;17.65;31.16;95951.09;5045656;28;20099;-61
2021/04/21 05:26:36;;;;;;;1.58;1.48;;;;;;;17.63;30.91;95954.91;5044353;28;20076;-62
2021/04/21 05:29:26;;;;;;;1.20;1.20;;;;;;;17.62;31.15;95953.28;5043696;28;20056;-60
2021/04/21 05:32:21;;;;;;;1.17;1.17;;;;;;;17.62;30.82;95952.47;5045853;28;20049;-62
2021/04/21 05:35:32;;;;;;;1.67;1.27;;;;;;;17.59;30.82;95956.56;5043667;28;20056;-62
2021/04/21 05:38:26;;;;;;;1.40;1.40;;;;;;;17.58;31.15;95957.63;5043873;28;20053;-62
2021/04/21 05:41:29;;;;;;;1.48;1.40;;;;;;;17.57;31.12;95960.63;5045917;28;20143;-62
2021/04/21 05:44:03;;;;;;;1.70;1.60;;;;;;;17.57;31.20;95961.44;5045405;28;20052;-61
2021/04/21 05:46:56;;;;;;;1.20;1.10;;;;;;;17.56;31.29;95959.78;5043990;28;20687;-61
2021/04/21 05:49:59;;;;;;;2.10;1.60;;;;;;;17.56;31.16;95967.13;5046247;28;20048;-63
2021/04/21 05:52:34;;;;;;;1.40;1.30;;;;;;;17.56;31.17;95964.41;5045330;28;20098;-65
2021/04/21 05:55:17;;;;;;;2.00;1.60;;;;;;;17.56;31.38;95959.78;5044934;28;20053;-65
2021/04/21 05:58:11;;;;;;;1.50;1.40;;;;;;;17.56;31.42;95976.03;5043910;28;20847;-65
2021/04/21 06:00:59;;;;;;;1.85;1.70;;;;;;;17.58;31.75;95973.06;5044592;28;20135;-65
2021/04/21 06:03:25;;;;;;;1.55;1.48;;;;;;;17.58;31.63;95970.34;5039298;28;20508;-65
2021/04/21 06:06:03;;;;;;;1.45;1.40;;;;;;;17.58;31.62;95976.56;5026709;28;20063;-64
2021/04/21 06:08:29;;;;;;;1.58;1.48;;;;;;;17.58;31.50;95973.06;5027456;28;20055;-64
2021/04/21 06:10:55;;;;;;;1.63;1.52;;;;;;;17.59;31.49;95974.66;5023836;28;20049;-64
2021/04/21 06:13:30;;;;;;;1.67;1.58;;;;;;;17.59;31.54;95974.66;5027134;28;20049;-65
2021/04/21 06:15:56;;;;;;;1.90;1.80;;;;;;;17.61;31.74;95977.91;5043194;28;20075;-61
2021/04/21 06:18:22;;;;;;;1.30;1.20;;;;;;;17.61;31.71;95977.91;5044493;28;20084;-62
2021/04/21 06:20:48;;;;;;;1.55;1.45;;;;;;;17.63;31.90;95983.88;5010240;28;20156;-64
2021/04/21 06:23:21;;;;;;;2.83;1.40;;;;;;;17.62;31.48;95982.25;5042569;28;20132;-63
2021/04/21 06:25:49;;;;;;;1.67;1.58;;;;;;;17.63;31.79;95981.16;5040151;28;20449;-65
2021/04/21 06:28:22;;;;;;;1.25;1.20;;;;;;;17.60;31.74;95985.25;5044348;28;20429;-65
2021/04/21 06:30:49;;;;;;;1.63;1.58;;;;;;;17.62;31.95;95988.47;5044107;28;20052;-65
2021/04/21 06:33:15;;;;;;;1.77;1.67;;;;;;;17.62;31.66;95988.47;5032020;28;20377;-65
2021/04/21 06:35:42;;;;;;;1.38;1.38;;;;;;;17.64;31.71;96001.75;5021654;28;20053;-64
2021/04/21 06:38:08;;;;;;;1.50;1.40;;;;;;;17.64;31.67;96007.19;5044532;28;20053;-64
2021/04/21 06:40:35;;;;;;;1.50;1.40;;;;;;;17.64;31.80;96001.75;5029344;28;20045;-64
2021/04/21 06:43:00;;;;;;;1.58;1.48;;;;;;;17.65;31.64;96002.56;5024903;28;20124;-64
2021/04/21 06:45:31;;;;;;;1.63;1.52;;;;;;;17.63;32.00;96003.66;5045976;28;20044;-64
2021/04/21 06:47:57;;;;;;;1.50;1.40;;;;;;;17.64;31.56;96007.19;5032653;28;20049;-64
2021/04/21 06:50:30;;;;;;;2.08;1.60;;;;;;;17.63;31.94;96009.09;5039410;28;20132;-65
2021/04/21 06:53:16;;;;;;;1.50;1.40;;;;;;;17.63;32.09;96011.78;5036667;28;20718;-67
2021/04/21 06:55:41;;;;;;;1.20;1.20;;;;;;;17.63;31.81;96008.25;5044260;28;20183;-65
2021/04/21 06:58:17;;;;;;;2.05;1.50;;;;;;;17.63;31.87;96010.97;5026557;28;20124;-64
2021/04/21 07:00:43;;;;;;;1.42;1.35;;;;;;;17.65;31.82;96011.50;5026884;28;20496;-62
2021/04/21 07:03:14;;;;;;;1.25;1.20;;;;;;;17.66;31.85;96012.31;5048596;28;20073;-65
2021/04/21 07:05:43;;;;;;;1.80;1.42;;;;;;;17.65;31.64;96005.28;5030573;28;20060;-63
2021/04/21 07:08:14;;;;;;;1.30;1.30;;;;;;;17.65;31.72;96016.91;5047661;28;20052;-68
2021/04/21 07:10:42;;;;;;;1.75;1.65;;;;;;;17.65;32.10;96010.69;5046835;28;20053;-65
2021/04/21 07:13:11;;;;;;;1.50;1.50;;;;;;;17.66;32.32;96009.63;5044331;28;20400;-65
2021/04/21 07:15:37;;;;;;;1.70;1.60;;;;;;;17.66;32.20;96009.63;5046262;28;20048;-65
2021/04/21 07:18:02;;;;;;;1.55;1.45;;;;;;;17.67;32.04;96008.53;5029791;28;20140;-65
2021/04/21 07:20:28;;;;;;;2.60;1.60;;;;;;;17.67;32.25;96012.03;5046378;28;20102;-65
2021/04/21 07:22:54;;;;;;;2.30;1.48;;;;;;;17.68;31.97;96013.66;5030933;28;20063;-66
2021/04/21 07:25:19;;;;;;;4.03;1.70;;;;;;;17.68;32.57;96013.66;5041986;28;20128;-65
2021/04/21 07:27:50;;;;;;;6.28;1.70;;;;;;;17.69;32.15;96015.28;5037597;28;20156;-64
2021/04/21 07:30:26;;;;;;;5.18;1.60;;;;;;;17.68;32.53;96005.53;5043992;28;20053;-62
2021/04/21 07:32:52;;;;;;;3.35;1.92;;;;;;;17.70;32.33;96016.13;5025119;28;20041;-63
2021/04/21 07:35:23;;;;;;;3.97;1.60;;;;;;;17.70;32.31;96010.69;5045578;28;20685;-60
2021/04/21 07:37:50;;;;;;;4.22;1.90;;;;;;;17.72;32.37;96019.38;5046550;28;20559;-65
2021/04/21 07:40:22;;;;;;;5.97;2.38;;;;;;;17.71;32.45;96023.13;5047384;28;20570;-65
2021/04/21 07:42:47;;;;;;;3.10;2.00;;;;;;;17.72;32.11;96020.16;5046171;28;20189;-65
2021/04/21 07:45:14;;;;;;;4.15;1.73;;;;;;;17.72;31.94;96019.38;5046982;28;20647;-66
2021/04/21 07:47:39;;;;;;;3.03;1.90;;;;;;;17.72;32.09;96025.59;5047737;28;20049;-66
2021/04/21 07:50:05;;;;;;;4.25;1.80;;;;;;;17.73;32.37;96023.69;5048314;28;20076;-65
2021/04/21 07:52:35;;;;;;;2.33;1.70;;;;;;;17.72;32.25;96025.59;5046217;28;20070;-62
2021/04/21 07:55:13;;;;;;;3.00;2.08;;;;;;;17.71;31.97;96032.06;5045997;28;20435;-59
2021/04/21 07:57:40;;;;;;;3.25;2.03;;;;;;;17.72;32.31;96031.00;5045731;28;20543;-65
2021/04/21 08:00:07;;;;;;;2.08;1.80;;;;;;;17.73;31.96;96034.50;5029060;28;20388;-64
2021/04/21 08:02:33;;;;;;;2.70;1.90;;;;;;;17.72;32.00;96024.78;5046364;28;20122;-65
2021/04/21 08:05:02;;;;;;;3.63;1.80;;;;;;;17.72;32.31;96033.72;5045712;28;20531;-65
2021/04/21 08:07:53;;;;;;;2.67;1.70;;;;;;;17.71;31.95;96039.38;5046783;28;20049;-65
2021/04/21 08:10:23;;;;;;;2.15;1.95;;;;;;;17.72;32.24;96035.63;5045761;28;20047;-65
2021/04/21 08:12:48;;;;;;;4.47;1.83;;;;;;;17.72;31.77;96036.41;5046174;28;20094;-66
2021/04/21 08:15:14;;;;;;;3.28;1.80;;;;;;;17.71;32.20;96034.78;5043070;28;20420;-65
2021/04/21 08:17:59;;;;;;;2.78;1.70;;;;;;;17.70;31.75;96038.59;5036174;28;20102;-65
2021/04/21 08:20:40;;;;;;;3.30;1.83;;;;;;;17.71;32.23;96044.81;5047208;28;20072;-64
2021/04/21 08:23:07;;;;;;;2.42;1.73;;;;;;;17.72;32.08;96041.03;5046216;28;20488;-66
2021/04/21 08:25:33;;;;;;;2.30;1.65;;;;;;;17.71;31.95;96048.31;5046168;28;20142;-66
2021/04/21 08:27:59;;;;;;;2.30;1.88;;;;;;;17.72;32.03;96046.44;5045506;28;20488;-65
2021/04/21 08:30:28;;;;;;;2.97;2.10;;;;;;;17.72;31.84;96043.75;5029542;28;20053;-62
2021/04/21 08:32:54;;;;;;;2.65;1.90;;;;;;;17.72;31.84;96046.44;5047344;28;20080;-65
2021/04/21 08:35:20;;;;;;;1.80;1.60;;;;;;;17.72;31.69;96047.25;5028662;28;20102;-66
2021/04/21 08:37:45;;;;;;;3.55;1.58;;;;;;;17.72;31.89;96049.97;5045269;28;20052;-66
2021/04/21 08:40:13;;;;;;;2.78;2.00;;;;;;;17.72;31.84;96039.13;5047291;28;20049;-64
2021/04/21 08:42:39;;;;;;;2.20;1.58;;;;;;;17.73;31.69;96046.16;5045038;28;20072;-66
2021/04/21 08:45:06;;;;;;;2.70;1.85;;;;;;;17.72;32.07;96052.66;5045022;28;20053;-65
2021/04/21 08:47:32;;;;;;;3.13;1.60;;;;;;;17.73;32.09;96048.84;5044876;28;20049;-65
2021/04/21 08:49:58;;;;;;;2.95;2.17;;;;;;;17.73;31.96;96048.84;5046274;28;20110;-65
2021/04/21 08:52:25;;;;;;;1.60;1.50;;;;;;;17.72;31.95;96046.44;5045745;28;20103;-63
2021/04/21 08:54:54;;;;;;;2.10;1.67;;;;;;;17.72;31.66;96044.53;5047158;28;20052;-61
2021/04/21 08:57:20;;;;;;;3.95;2.17;;;;;;;17.74;32.07;96047.00;5045306;28;20494;-65
2021/04/21 08:59:46;;;;;;;2.28;2.08;;;;;;;17.74;32.03;96047.00;5045832;28;20083;-65
2021/04/21 09:02:14;;;;;;;2.47;1.73;;;;;;;17.75;31.83;96054.00;5043495;28;20068;-65
2021/04/21 09:04:40;;;;;;;3.50;1.67;;;;;;;17.73;31.99;96046.16;5044181;28;20071;-65
2021/04/21 09:07:06;;;;;;;1.77;1.67;;;;;;;17.73;31.79;96046.16;5043491;28;20083;-65
2021/04/21 09:09:32;;;;;;;2.88;1.98;;;;;;;17.74;31.94;96045.09;5043259;28;20107;-65
2021/04/21 09:12:00;;;;;;;2.78;1.95;;;;;;;17.74;31.92;96039.66;5027054;28;20056;-66
2021/04/21 09:14:26;;;;;;;1.80;1.70;;;;;;;17.74;31.90;96041.56;5043772;28;20131;-65
2021/04/21 09:16:52;;;;;;;1.80;1.70;;;;;;;17.74;31.61;96045.09;5045925;28;20041;-65
2021/04/21 09:19:18;;;;;;;1.67;1.50;;;;;;;17.74;31.80;96042.38;5040684;28;20505;-66
2021/04/21 09:21:43;;;;;;;2.00;1.77;;;;;;;17.75;31.62;96041.28;5026211;28;20599;-66
2021/04/21 09:24:24;;;;;;;1.80;1.70;;;;;;;17.76;31.93;96032.06;5024895;28;20077;-65
2021/04/21 09:26:49;;;;;;;1.80;1.60;;;;;;;17.77;31.98;96044.53;5044314;28;20232;-64
2021/04/21 09:29:26;;;;;;;1.85;1.75;;;;;;;17.76;31.65;96042.09;5045689;28;20136;-64
2021/04/21 09:32:12;;;;;;;1.50;1.40;;;;;;;17.77;31.98;96044.53;5046657;28;20045;-64
2021/04/21 09:34:37;;;;;;;2.15;1.60;;;;;;;17.79;31.67;96050.47;5045278;28;20114;-65
2021/04/21 09:37:03;;;;;;;2.25;1.65;;;;;;;17.79;31.93;96047.78;5027618;28;20080;-65
2021/04/21 09:39:29;;;;;;;2.92;1.63;;;;;;;17.80;31.98;96040.47;5044208;28;20500;-65
2021/04/21 09:42:00;;;;;;;1.70;1.60;;;;;;;17.80;31.73;96038.56;5027678;28;20033;-63
2021/04/21 09:44:30;;;;;;;1.95;1.85;;;;;;;17.81;31.96;96040.19;5045514;28;20091;-63
2021/04/21 09:46:56;;;;;;;2.03;1.50;;;;;;;17.82;31.97;96046.44;5045809;28;20052;-65
2021/04/21 09:49:35;;;;;;;1.75;1.65;;;;;;;17.81;32.08;96040.19;5044465;28;20084;-65
2021/04/21 09:52:21;;;;;;;3.03;1.60;;;;;;;17.81;31.74;96034.75;5044957;28;20053;-64
2021/04/21 09:54:48;;;;;;;2.05;1.75;;;;;;;17.82;31.94;96049.97;5024101;28;20127;-65
2021/04/21 09:57:15;;;;;;;1.55;1.45;;;;;;;17.82;31.87;96046.44;5027523;28;20528;-65
2021/04/21 09:59:41;;;;;;;2.33;1.67;;;;;;;17.82;31.96;96047.28;5044792;28;20075;-65
2021/04/21 10:02:32;;;;;;;1.98;1.65;;;;;;;17.82;31.93;96049.97;5045128;28;20049;-64
2021/04/21 10:04:58;;;;;;;2.90;2.30;;;;;;;17.83;31.94;96057.00;5045047;28;20063;-66
2021/04/21 10:07:23;;;;;;;1.40;1.30;;;;;;;17.83;32.02;96056.19;5045933;28;20045;-63
2021/04/21 10:09:56;;;;;;;1.60;1.50;;;;;;;17.83;31.64;96051.59;5045006;28;20060;-62
2021/04/21 10:12:23;;;;;;;1.33;1.30;;;;;;;17.82;31.92;96052.69;5045378;28;20111;-63
2021/04/21 10:15:01;;;;;;;1.80;1.70;;;;;;;17.83;32.03;96048.88;5026749;28;20052;-66
2021/04/21 10:17:30;;;;;;;1.98;1.80;;;;;;;17.83;31.86;96048.06;5043244;28;20053;-65
2021/04/21 10:19:59;;;;;;;1.85;1.75;;;;;;;17.83;31.65;96050.78;5040528;28;20410;-64
2021/04/21 10:22:25;;;;;;;1.88;1.55;;;;;;;17.83;31.74;96048.06;5037539;28;20443;-64
2021/04/21 10:24:50;;;;;;;3.08;1.98;;;;;;;17.85;31.73;96053.22;5014120;28;20527;-64
2021/04/21 10:27:16;;;;;;;10.55;1.98;;;;;;;17.84;31.80;96049.72;5044923;28;20080;-65
2021/04/21 10:29:41;;;;;;;24.13;6.93;;;;;;;17.83;32.14;96040.75;5025665;28;20047;-66
2021/04/21 10:32:07;;;;;;;71.50;17.65;;;;;;;17.85;32.41;96045.09;5046799;28;20106;-61
2021/04/21 10:34:33;;;;;;;58.95;15.57;;;;;;;17.86;32.72;96046.72;5046649;28;20143;-61
2021/04/21 10:36:58;;;;;;;57.75;14.35;;;;;;;17.86;32.94;96042.09;5042818;28;20040;-61
2021/04/21 10:39:28;;;;;;;47.28;12.82;;;;;;;17.88;33.25;96047.25;5044244;28;20080;-65
2021/04/21 10:42:05;;;;;;;42.15;13.15;;;;;;;17.90;33.80;96039.66;5043903;28;20087;-64
2021/04/21 10:44:33;;;;;;;38.85;11.20;;;;;;;17.93;34.00;96039.13;5031244;28;20072;-66
2021/04/21 10:47:04;;;;;;;43.47;11.52;;;;;;;17.94;33.73;96046.16;5040289;28;20055;-63
2021/04/21 10:49:55;;;;;;;34.33;10.48;;;;;;;17.94;33.66;96038.03;5044473;28;20088;-67
2021/04/21 10:52:28;;;;;;;33.50;10.05;;;;;;;17.96;33.56;96038.56;5045266;28;20130;-66
2021/04/21 10:54:58;;;;;;;33.40;9.48;;;;;;;17.98;33.55;96039.09;5023202;28;20068;-61
2021/04/21 10:57:23;;;;;;;30.00;10.65;;;;;;;17.99;33.61;96036.13;5035995;28;20493;-64
2021/04/21 11:00:15;;;;;;;38.03;9.93;;;;;;;17.99;33.77;96038.03;5038667;28;20063;-63
2021/04/21 11:02:40;;;;;;;26.33;8.25;;;;;;;18.01;33.58;96033.94;5036297;28;20059;-64
2021/04/21 11:05:10;;;;;;;22.63;7.78;;;;;;;18.02;33.56;96034.75;5042791;28;20045;-63
2021/04/21 11:07:36;;;;;;;31.77;8.80;;;;;;;18.01;33.52;96025.81;5042736;28;20495;-63
2021/04/21 11:10:03;;;;;;;28.50;8.73;;;;;;;18.06;33.82;96029.59;5041886;28;20562;-62
2021/04/21 11:12:53;;;;;;;19.70;7.25;;;;;;;18.07;33.80;96028.50;5042889;28;20095;-63
2021/04/21 11:15:45;;;;;;;21.00;7.13;;;;;;;18.09;33.86;96026.31;5043477;28;20075;-61
2021/04/21 11:18:11;;;;;;;13.98;6.00;;;;;;;18.11;34.34;96026.84;5040887;28;20064;-63
2021/04/21 11:20:46;;;;;;;18.17;5.50;;;;;;;18.11;34.44;96024.94;5046512;28;20571;-64
2021/04/21 11:23:53;;;;;;;17.52;5.30;;;;;;;18.12;34.52;96026.59;5047033;28;20057;-65
2021/04/21 11:26:26;;;;;;;14.75;5.60;;;;;;;18.14;34.30;96024.41;5046445;28;20064;-65
2021/04/21 11:29:01;;;;;;;14.32;5.00;;;;;;;18.14;34.66;96024.41;5047850;28;20056;-67
2021/04/21 11:31:42;;;;;;;;;;;;;;;18.15;34.00;96020.59;5034098;28;20136;-64
2021/04/21 11:34:17;;;;;;;11.38;4.10;;;;;;;18.14;34.74;96024.41;5043464;28;19920;-61
2021/04/21 11:36:49;;;;;;;8.48;4.13;;;;;;;18.16;34.54;96024.16;5043894;28;20067;-63
2021/04/21 11:39:36;;;;;;;10.38;5.22;;;;;;;18.17;34.89;96021.13;5045670;28;20606;-63
2021/04/21 11:42:25;;;;;;;7.63;3.85;;;;;;;18.16;34.63;96016.81;5031930;28;20049;-62
2021/04/21 11:45:23;;;;;;;8.98;4.03;;;;;;;18.18;34.64;96016.53;5031632;28;20514;-64
2021/04/21 11:47:56;;;;;;;7.55;3.60;;;;;;;18.19;35.17;96010.81;5042714;28;20045;-62
2021/04/21 11:50:26;;;;;;;8.50;4.10;;;;;;;18.21;35.06;96003.22;5045458;28;20052;-64
2021/04/21 11:53:07;;;;;;;6.50;3.90;;;;;;;18.21;34.93;96002.44;5046675;28;20539;-63
2021/04/21 11:55:45;;;;;;;8.77;3.70;;;;;;;18.21;34.85;95997.81;5043060;28;20412;-64
2021/04/21 11:58:16;;;;;;;7.03;3.63;;;;;;;18.23;34.60;96001.06;5043863;28;20053;-63